Bayberry, New York
Current Conditions -  °F | °C
As of 6:54 PM on Saturday 25 Oct 2014 (Local Time) from KSYR Reporting Station
Broken Clouds Broken Clouds  
Wind Chill: 58°   Ceiling: 3200
Heat Index: 58°   Visibility: 9mi
Dew Point: 50°   Wind: 16mph
Humidity: 75%   Direction: 290°WNW
Pressure: 29.58"   Gusts: 22mph
Location:  43.1489°N, 76.2142°W
Report Text: KSYR 252254Z 29014G19KT 9SM BKN032 14/10 A2958 RMK AO2 TSE05 SLP014 T01440100
Loading
Personal Weather Stations






























Interactive Weather Map
Tropical Storm Tracking
New forecast layout! Learn more

10-Day Weather Forecast

Advertisements
Track Severe Weather on mobile